ซานฟรานซิสโก, CA

04:48 AM PDT วัน เมษายน 28, 2015 (GMT -0700)
SOMA - Near Van Ness | | Change Station
CLOSE
Current Station
Personal Weather Stations
Location: San Francisco, CA
Elevation: 49 ft
Nearby Weather Stations

Elev 49 ft 37.77 °N, 122.42 °W | Updated 22 seconds ago

มีเมฆคลุมไปทั่ว
มีเมฆคลุมไปทั่ว
52.0 ฟาเรนไฮน์
Feels Like 52.0 ฟาเรนไฮน์
N
2.0
ลม ความผันแปร ลม from ทางทิศใต้และทิศตะวันตกเฉียงใต้
Gusts 6.0 mph

วันนี้
High -- | Low -- ฟาเรนไฮน์
--% Chance of Precip.
Yesterday
High -- | Low -- ฟาเรนไฮน์
Precip. -- นิ้ว
6:17 AM 7:57 PM
ข้างขึ้น, 73% visible
ความดัน 30.04 นิ้ว
ทัศนวิสัย 10.0 ไมล์
เมฆ Few 200 ft
มีเมฆคลุมเป็นส่วนใหญ่ 700 ft
มีเมฆคลุมไปทั่ว 1300 ft
อุณหภูมิที่อากาศอาจจับตัวเป็นหยาดน้ำค้าง 50 ฟาเรนไฮน์
ความชื้น 93%
Rainfall 0.00 นิ้ว
Snow Depth Not available.
UV 0 out of 12
Pollen 8.00 out of 12
Air Quality Not available.
Flu Activity Sporadic
METAR KSFO 281056Z 27010KT 10SM FEW002 BKN007 OVC013 12/09 A3004 RMK AO2 SLP173 T01170094

More Conditions Fewer Conditions

ความดัน 30.04 นิ้ว
ทัศนวิสัย 10.0 ไมล์
เมฆ Few 200 ft
มีเมฆคลุมเป็นส่วนใหญ่ 700 ft
มีเมฆคลุมไปทั่ว 1300 ft
อุณหภูมิที่อากาศอาจจับตัวเป็นหยาดน้ำค้าง 50 ฟาเรนไฮน์
ความชื้น 93%
Rainfall 0.00 นิ้ว
Snow Depth Not available.
UV 0 out of 12
Pollen 8.00 out of 12
Air Quality Not available.
Flu Activity Sporadic
METAR KSFO 281056Z 27010KT 10SM FEW002 BKN007 OVC013 12/09 A3004 RMK AO2 SLP173 T01170094

More Conditions Fewer Conditions

10-Day Weather Forecast

Almanac

ดาราศาสตร์

Apr. 28, 2015 Rise Set
Actual Time
Civil Twilight
Nautical Twilight
Astronomical Twilight
Moon
Length Of Visible Light
ความยาวของวัน
Tomorrow will be .
, % of the Moon is Illuminated

Today's Extremes

State Highs State Lows

Community

WunderPhotos

Upload Photos

1,817,610 photos uploaded!

WunderBlogs® & News

Nearby

Air Quality

  Air Quality AQ Index Pollutant
Not available.

Snow Depth

Station Depth Elevation

Earthquake Activity

City Distance Mag. Time & Date
Minimum magnitude displayed is 2.5.

Coastal Water Temperatures

สถานที่ อุณหภูมิ

Stations

Nearby Weather Stations

Station Location Temp ลมหนาว อุณหภูมิที่อากาศอาจจับตัวเป็นหยาดน้ำค้าง ความชื้น ลม Precip. Elev ปรับปรุงล่าสุด Type